createdAt,value
2018-05-16T00:00:20.843Z,87
2018-05-16T00:01:22.848Z,87
2018-05-16T00:02:24.855Z,87
2018-05-16T00:03:26.847Z,87
2018-05-16T00:04:28.853Z,87
2018-05-16T00:05:30.849Z,87
2018-05-16T00:06:32.911Z,87
2018-05-16T00:07:34.900Z,87
2018-05-16T00:08:37.287Z,88
2018-05-16T00:09:39.275Z,88
2018-05-16T00:10:41.280Z,88
2018-05-16T00:11:43.274Z,88
2018-05-16T00:12:45.277Z,88
2018-05-16T00:13:47.855Z,88
2018-05-16T00:14:50.271Z,88
2018-05-16T00:15:52.543Z,88
2018-05-16T00:16:54.619Z,88
2018-05-16T00:17:56.612Z,89
2018-05-16T00:18:59.002Z,89
2018-05-16T00:20:00.997Z,89
2018-05-16T00:21:03.379Z,89
2018-05-16T00:22:05.400Z,89
2018-05-16T00:23:07.529Z,89
2018-05-16T00:24:09.533Z,89
2018-05-16T00:25:11.520Z,89
2018-05-16T00:26:13.503Z,88
2018-05-16T00:27:15.509Z,89
2018-05-16T00:28:17.501Z,88
2018-05-16T00:29:19.496Z,88
2018-05-16T00:30:21.547Z,88
2018-05-16T00:31:23.545Z,88
2018-05-16T00:32:25.814Z,88
2018-05-16T00:33:27.860Z,88
2018-05-16T00:34:29.861Z,89
2018-05-16T00:35:31.839Z,88
2018-05-16T00:36:34.238Z,89
2018-05-16T00:37:36.234Z,89
2018-05-16T00:38:38.233Z,88
2018-05-16T00:39:40.232Z,88
2018-05-16T00:40:42.229Z,89
2018-05-16T00:41:44.227Z,88
2018-05-16T00:42:46.216Z,88
2018-05-16T00:43:48.226Z,88
2018-05-16T00:44:50.237Z,88
2018-05-16T00:45:52.228Z,88
2018-05-16T00:46:54.513Z,88
2018-05-16T00:47:56.721Z,88
2018-05-16T00:48:58.733Z,88
2018-05-16T00:50:00.723Z,88
2018-05-16T00:51:03.100Z,87
2018-05-16T00:52:05.136Z,87
2018-05-16T00:53:07.128Z,87
2018-05-16T00:54:09.132Z,86
2018-05-16T00:55:11.261Z,86
2018-05-16T00:56:13.262Z,86
2018-05-16T00:57:15.260Z,86
2018-05-16T00:58:17.633Z,86
2018-05-16T00:59:19.711Z,86
2018-05-16T01:00:21.701Z,86
2018-05-16T01:01:23.698Z,86
2018-05-16T01:02:25.693Z,86
2018-05-16T01:03:28.090Z,86
2018-05-16T01:04:30.090Z,86
2018-05-16T01:05:32.738Z,86
2018-05-16T01:06:34.751Z,86
2018-05-16T01:07:36.785Z,86
2018-05-16T01:08:38.847Z,86
2018-05-16T01:09:40.866Z,86
2018-05-16T01:10:42.863Z,86
2018-05-16T01:11:44.868Z,86
2018-05-16T01:12:46.902Z,85
2018-05-16T01:13:49.016Z,86
2018-05-16T01:14:51.305Z,86
2018-05-16T01:15:53.289Z,86
2018-05-16T01:16:55.484Z,86
2018-05-16T01:17:57.503Z,86
2018-05-16T01:18:59.501Z,86
2018-05-16T01:20:01.502Z,85
2018-05-16T01:21:04.318Z,86
2018-05-16T01:22:06.618Z,86
2018-05-16T01:23:08.686Z,86
2018-05-16T01:24:10.676Z,86
2018-05-16T01:25:12.974Z,86
2018-05-16T01:26:14.968Z,86
2018-05-16T01:27:17.135Z,86
2018-05-16T01:28:19.575Z,85
2018-05-16T01:29:21.578Z,86
2018-05-16T01:30:23.892Z,85
2018-05-16T01:31:25.902Z,85
2018-05-16T01:32:27.912Z,85
2018-05-16T01:33:29.915Z,85
2018-05-16T01:34:32.199Z,84
2018-05-16T01:35:34.192Z,85
2018-05-16T01:36:36.199Z,84
2018-05-16T01:37:38.651Z,84
2018-05-16T01:38:40.800Z,84
2018-05-16T01:39:42.811Z,84
2018-05-16T01:40:44.804Z,84
2018-05-16T01:41:47.077Z,83
2018-05-16T01:42:49.075Z,83
2018-05-16T01:43:51.363Z,83
2018-05-16T01:44:53.631Z,83
2018-05-16T01:45:55.639Z,83
2018-05-16T01:46:57.923Z,83
2018-05-16T01:47:59.912Z,83
2018-05-16T01:49:02.194Z,83
2018-05-16T01:50:04.470Z,83
2018-05-16T01:51:06.789Z,83
2018-05-16T01:52:09.071Z,83
2018-05-16T01:53:11.066Z,83
2018-05-16T01:54:13.069Z,83
2018-05-16T01:55:15.069Z,83
2018-05-16T01:56:17.051Z,83
2018-05-16T01:57:19.065Z,84
2018-05-16T01:58:21.076Z,84
2018-05-16T01:59:23.463Z,84
2018-05-16T02:00:25.749Z,85
2018-05-16T02:01:28.139Z,85
2018-05-16T02:02:30.135Z,85
2018-05-16T02:03:32.129Z,85
2018-05-16T02:04:34.121Z,85
2018-05-16T02:05:36.127Z,85
2018-05-16T02:06:38.119Z,85
2018-05-16T02:07:40.121Z,84
2018-05-16T02:08:42.394Z,84
2018-05-16T02:09:44.402Z,84
2018-05-16T02:10:46.708Z,84
2018-05-16T02:11:49.091Z,84
2018-05-16T02:12:51.091Z,84
2018-05-16T02:13:53.381Z,84
2018-05-16T02:14:55.369Z,83
2018-05-16T02:15:57.650Z,83
2018-05-16T02:16:59.642Z,83
2018-05-16T02:18:01.641Z,84
2018-05-16T02:19:03.653Z,84
2018-05-16T02:20:05.643Z,85
2018-05-16T02:21:07.979Z,85
2018-05-16T02:22:09.985Z,86
2018-05-16T02:23:11.984Z,85
2018-05-16T02:24:13.979Z,84
2018-05-16T02:25:15.970Z,84
2018-05-16T02:26:17.976Z,84
2018-05-16T02:27:19.971Z,84
2018-05-16T02:28:21.972Z,85
2018-05-16T02:29:23.961Z,86
2018-05-16T02:30:25.964Z,86
2018-05-16T02:31:27.958Z,86
2018-05-16T02:32:30.265Z,87
2018-05-16T02:33:32.562Z,88
2018-05-16T02:34:34.573Z,87
2018-05-16T02:35:36.577Z,87
2018-05-16T02:36:38.569Z,87
2018-05-16T02:37:40.853Z,86
2018-05-16T02:38:42.863Z,87
2018-05-16T02:39:44.848Z,86
2018-05-16T02:40:47.429Z,87
2018-05-16T02:41:49.417Z,88
2018-05-16T02:42:51.412Z,87
2018-05-16T02:43:53.692Z,88
2018-05-16T02:44:55.690Z,87
2018-05-16T02:45:57.688Z,87
2018-05-16T02:46:59.691Z,87
2018-05-16T02:48:01.689Z,88
2018-05-16T02:49:04.028Z,87
2018-05-16T02:50:06.021Z,88
2018-05-16T02:51:08.309Z,87
2018-05-16T02:52:10.305Z,87
2018-05-16T02:53:12.311Z,87
2018-05-16T02:54:14.306Z,87
2018-05-16T02:55:16.293Z,87
2018-05-16T02:56:18.294Z,87
2018-05-16T02:57:20.595Z,88
2018-05-16T02:58:22.871Z,88
2018-05-16T02:59:25.247Z,88
2018-05-16T03:00:27.809Z,88
2018-05-16T03:01:30.084Z,89
2018-05-16T03:02:32.092Z,89
2018-05-16T03:03:34.370Z,89
2018-05-16T03:04:37.323Z,89
2018-05-16T03:05:39.328Z,89
2018-05-16T03:06:41.326Z,90
2018-05-16T03:07:43.607Z,90
2018-05-16T03:08:45.612Z,90
2018-05-16T03:09:48.581Z,89
2018-05-16T03:10:50.584Z,89
2018-05-16T03:11:52.857Z,90
2018-05-16T03:12:54.863Z,90
2018-05-16T03:13:57.150Z,90
2018-05-16T03:14:59.149Z,90
2018-05-16T03:16:01.151Z,90
2018-05-16T03:17:03.142Z,90
2018-05-16T03:18:05.722Z,90
2018-05-16T03:19:07.719Z,89
2018-05-16T03:20:09.717Z,89
2018-05-16T03:21:11.717Z,89
2018-05-16T03:22:13.707Z,90
2018-05-16T03:23:15.689Z,89
2018-05-16T03:24:17.687Z,89
2018-05-16T03:25:19.691Z,89
2018-05-16T03:26:21.685Z,89
2018-05-16T03:27:23.682Z,90
2018-05-16T03:28:26.057Z,90
2018-05-16T03:29:28.066Z,90
2018-05-16T03:30:30.730Z,90
2018-05-16T03:31:33.024Z,90
2018-05-16T03:32:35.309Z,90
2018-05-16T03:33:37.309Z,90
2018-05-16T03:34:39.302Z,90
2018-05-16T03:35:41.293Z,90
2018-05-16T03:36:43.303Z,89
2018-05-16T03:37:45.292Z,89
2018-05-16T03:38:47.566Z,89
2018-05-16T03:39:49.561Z,89
2018-05-16T03:40:51.563Z,89
2018-05-16T03:41:53.560Z,89
2018-05-16T03:42:55.560Z,89
2018-05-16T03:43:57.545Z,89
2018-05-16T03:44:59.551Z,89
2018-05-16T03:46:01.535Z,90
2018-05-16T03:47:04.098Z,90
2018-05-16T03:48:06.100Z,89
2018-05-16T03:49:08.097Z,89
2018-05-16T03:50:10.092Z,89
2018-05-16T03:51:12.093Z,89
2018-05-16T03:52:14.088Z,89
2018-05-16T03:53:16.099Z,89
2018-05-16T03:54:18.098Z,89
2018-05-16T03:55:20.101Z,89
2018-05-16T03:56:22.094Z,89
2018-05-16T03:57:24.096Z,89
2018-05-16T03:58:26.089Z,89
2018-05-16T03:59:28.101Z,89
2018-05-16T04:00:30.368Z,89
2018-05-16T04:01:32.754Z,89
2018-05-16T04:02:34.747Z,89
2018-05-16T04:03:37.028Z,89
2018-05-16T04:04:39.329Z,89
2018-05-16T04:05:41.326Z,89
2018-05-16T04:06:43.324Z,89
2018-05-16T04:07:45.323Z,89
2018-05-16T04:08:47.320Z,89
2018-05-16T04:09:49.326Z,89
2018-05-16T04:10:51.625Z,89
2018-05-16T04:11:53.629Z,89
2018-05-16T04:12:55.642Z,89
2018-05-16T04:13:57.614Z,89
2018-05-16T04:14:59.606Z,89
2018-05-16T04:16:01.611Z,89
2018-05-16T04:17:03.601Z,89
2018-05-16T04:18:05.586Z,89
2018-05-16T04:19:07.868Z,89
2018-05-16T04:20:09.864Z,89
2018-05-16T04:21:11.863Z,89
2018-05-16T04:22:13.865Z,89
2018-05-16T04:23:15.862Z,88
2018-05-16T04:24:17.864Z,88
2018-05-16T04:25:19.850Z,88
2018-05-16T04:26:21.853Z,88
2018-05-16T04:27:24.239Z,88
2018-05-16T04:28:26.237Z,88
2018-05-16T04:29:28.236Z,88
2018-05-16T04:30:30.239Z,88
2018-05-16T04:31:32.239Z,88
2018-05-16T04:32:34.261Z,88
2018-05-16T04:33:36.983Z,88
2018-05-16T04:34:39.266Z,88
2018-05-16T04:35:41.259Z,88
2018-05-16T04:36:43.248Z,88
2018-05-16T04:37:45.253Z,88
2018-05-16T04:38:47.542Z,88
2018-05-16T04:39:49.543Z,88
2018-05-16T04:40:51.540Z,88
2018-05-16T04:41:53.534Z,88
2018-05-16T04:42:55.534Z,88
2018-05-16T04:43:57.515Z,88
2018-05-16T04:44:59.903Z,88
2018-05-16T04:46:01.909Z,88
2018-05-16T04:47:03.907Z,88
2018-05-16T04:48:06.284Z,88
2018-05-16T04:49:08.279Z,88
2018-05-16T04:50:10.655Z,88
2018-05-16T04:51:12.655Z,87
2018-05-16T04:52:15.042Z,88
2018-05-16T04:53:17.038Z,88
2018-05-16T04:54:19.354Z,87
2018-05-16T04:55:21.338Z,88
2018-05-16T04:56:23.337Z,88
2018-05-16T04:57:25.335Z,88
2018-05-16T04:58:27.327Z,87
2018-05-16T04:59:29.332Z,87
2018-05-16T05:00:31.338Z,87
2018-05-16T05:01:33.337Z,87
2018-05-16T05:02:35.718Z,88
2018-05-16T05:03:37.710Z,88
2018-05-16T05:04:39.702Z,87
2018-05-16T05:05:41.696Z,86
2018-05-16T05:06:43.701Z,87
2018-05-16T05:07:45.711Z,87
2018-05-16T05:08:48.225Z,85
2018-05-16T05:09:50.538Z,86
2018-05-16T05:10:52.536Z,86
2018-05-16T05:11:54.524Z,86
2018-05-16T05:12:56.522Z,86
2018-05-16T05:13:58.518Z,85
2018-05-16T05:15:00.522Z,85
2018-05-16T05:16:02.523Z,84
2018-05-16T05:17:04.513Z,84
2018-05-16T05:18:06.540Z,83
2018-05-16T05:19:08.520Z,83
2018-05-16T05:20:10.513Z,83
2018-05-16T05:21:12.516Z,84
2018-05-16T05:22:14.507Z,84
2018-05-16T05:23:16.522Z,84
2018-05-16T05:24:18.515Z,83
2018-05-16T05:25:20.510Z,84
2018-05-16T05:26:22.525Z,84
2018-05-16T05:27:24.519Z,83
2018-05-16T05:28:26.518Z,82
2018-05-16T05:29:28.903Z,83
2018-05-16T05:30:30.895Z,83
2018-05-16T05:31:33.596Z,83
2018-05-16T05:32:35.581Z,83
2018-05-16T05:33:37.573Z,82
2018-05-16T05:34:39.872Z,83
2018-05-16T05:35:41.867Z,82
2018-05-16T05:36:44.270Z,82
2018-05-16T05:37:46.553Z,82
2018-05-16T05:38:48.548Z,83
2018-05-16T05:39:50.561Z,83
2018-05-16T05:40:52.549Z,82
2018-05-16T05:41:54.554Z,82
2018-05-16T05:42:56.552Z,81
2018-05-16T05:43:58.846Z,81
2018-05-16T05:45:00.846Z,82
2018-05-16T05:46:02.841Z,82
2018-05-16T05:47:04.838Z,82
2018-05-16T05:48:07.129Z,81
2018-05-16T05:49:09.565Z,81
2018-05-16T05:50:12.165Z,81
2018-05-16T05:51:14.163Z,81
2018-05-16T05:52:16.467Z,82
2018-05-16T05:53:18.469Z,82
2018-05-16T05:54:20.465Z,82
2018-05-16T05:55:22.754Z,82
2018-05-16T05:56:24.752Z,82
2018-05-16T05:57:26.748Z,82
2018-05-16T05:58:28.762Z,82
2018-05-16T05:59:30.748Z,82
2018-05-16T06:00:32.755Z,81
2018-05-16T06:01:34.750Z,80
2018-05-16T06:02:36.752Z,80
2018-05-16T06:03:38.758Z,80
2018-05-16T06:04:41.037Z,79
2018-05-16T06:05:43.320Z,79
2018-05-16T06:06:45.338Z,80
2018-05-16T06:07:47.319Z,81
2018-05-16T06:08:49.326Z,80
2018-05-16T06:09:51.316Z,81
2018-05-16T06:10:53.316Z,81
2018-05-16T06:11:55.609Z,80
2018-05-16T06:12:57.614Z,78
2018-05-16T06:13:59.602Z,79
2018-05-16T06:15:01.603Z,80
2018-05-16T06:16:03.618Z,80
2018-05-16T06:17:05.609Z,79
2018-05-16T06:18:07.908Z,79
2018-05-16T06:19:09.909Z,79
2018-05-16T06:20:11.909Z,78
2018-05-16T06:21:13.911Z,78
2018-05-16T06:22:15.897Z,77
2018-05-16T06:23:17.908Z,77
2018-05-16T06:24:19.900Z,77
2018-05-16T06:25:22.097Z,77
2018-05-16T06:26:24.099Z,77
2018-05-16T06:27:26.190Z,77
2018-05-16T06:28:28.095Z,77
2018-05-16T06:29:30.095Z,77
2018-05-16T06:30:32.103Z,76
2018-05-16T06:31:34.383Z,76
2018-05-16T06:32:36.380Z,75
2018-05-16T06:33:38.373Z,76
2018-05-16T06:34:40.375Z,76
2018-05-16T06:35:42.376Z,76
2018-05-16T06:36:44.764Z,76
2018-05-16T06:37:46.761Z,76
2018-05-16T06:38:48.762Z,76
2018-05-16T06:39:50.753Z,75
2018-05-16T06:40:52.754Z,76
2018-05-16T06:41:54.752Z,75
2018-05-16T06:42:56.756Z,73
2018-05-16T06:43:58.762Z,74
2018-05-16T06:45:00.756Z,74
2018-05-16T06:46:02.768Z,75
2018-05-16T06:47:05.164Z,76
2018-05-16T06:48:07.439Z,76
2018-05-16T06:49:09.443Z,75
2018-05-16T06:50:11.723Z,75
2018-05-16T06:51:13.723Z,76
2018-05-16T06:52:15.725Z,75
2018-05-16T06:53:17.731Z,73
2018-05-16T06:54:19.734Z,72
2018-05-16T06:55:21.744Z,73
2018-05-16T06:56:23.818Z,72
2018-05-16T06:57:25.744Z,72
2018-05-16T06:58:28.136Z,72
2018-05-16T06:59:30.419Z,70
2018-05-16T07:00:32.711Z,71
2018-05-16T07:01:34.709Z,69
2018-05-16T07:02:36.715Z,70
2018-05-16T07:03:38.715Z,70
2018-05-16T07:04:40.720Z,69
2018-05-16T07:05:42.723Z,69
2018-05-16T07:06:45.011Z,70
2018-05-16T07:07:47.008Z,67
2018-05-16T07:08:49.016Z,69
2018-05-16T07:09:51.302Z,69
2018-05-16T07:10:53.319Z,69
2018-05-16T07:11:55.316Z,70
2018-05-16T07:12:57.313Z,70
2018-05-16T07:13:59.319Z,70
2018-05-16T07:15:01.333Z,69
2018-05-16T07:16:03.337Z,72
2018-05-16T07:17:05.344Z,71
2018-05-16T07:18:07.353Z,72
2018-05-16T07:19:09.367Z,69
2018-05-16T07:20:11.365Z,71
2018-05-16T07:21:13.380Z,72
2018-05-16T07:22:15.402Z,73
2018-05-16T07:23:18.080Z,74
2018-05-16T07:24:20.119Z,71
2018-05-16T07:25:22.121Z,73
2018-05-16T07:26:24.119Z,72
2018-05-16T07:27:26.122Z,72
2018-05-16T07:28:28.417Z,72
2018-05-16T07:29:30.418Z,71
2018-05-16T07:30:32.805Z,71
2018-05-16T07:31:34.819Z,69
2018-05-16T07:32:36.829Z,69
2018-05-16T07:33:38.855Z,70
2018-05-16T07:34:40.895Z,71
2018-05-16T07:35:42.901Z,71
2018-05-16T07:36:44.895Z,71
2018-05-16T07:37:46.957Z,72
2018-05-16T07:38:49.258Z,71
2018-05-16T07:39:51.267Z,71
2018-05-16T07:40:53.588Z,71
2018-05-16T07:41:55.590Z,70
2018-05-16T07:42:57.600Z,71
2018-05-16T07:43:59.599Z,71
2018-05-16T07:45:01.602Z,70
2018-05-16T07:46:03.609Z,69
2018-05-16T07:47:05.694Z,69
2018-05-16T07:48:07.615Z,70
2018-05-16T07:49:09.636Z,70
2018-05-16T07:50:11.643Z,69
2018-05-16T07:51:13.748Z,69
2018-05-16T07:52:16.029Z,69
2018-05-16T07:53:18.054Z,68
2018-05-16T07:54:20.054Z,69
2018-05-16T07:55:22.057Z,68
2018-05-16T07:56:24.062Z,67
2018-05-16T07:57:26.064Z,67
2018-05-16T07:58:28.349Z,67
2018-05-16T07:59:30.355Z,66
2018-05-16T08:00:32.345Z,65
2018-05-16T08:01:34.355Z,65
2018-05-16T08:02:36.372Z,65
2018-05-16T08:03:38.370Z,65
2018-05-16T08:04:40.752Z,66
2018-05-16T08:05:42.758Z,67
2018-05-16T08:06:44.762Z,68
2018-05-16T08:07:46.769Z,68
2018-05-16T08:08:48.782Z,66
2018-05-16T08:09:51.164Z,65
2018-05-16T08:10:53.173Z,64
2018-05-16T08:11:55.552Z,64
2018-05-16T08:12:57.563Z,64
2018-05-16T08:13:59.578Z,64
2018-05-16T08:15:01.589Z,67
2018-05-16T08:16:03.594Z,63
2018-05-16T08:17:05.594Z,65
2018-05-16T08:18:07.602Z,65
2018-05-16T08:19:09.604Z,63
2018-05-16T08:20:11.607Z,62
2018-05-16T08:21:13.999Z,62
2018-05-16T08:22:16.391Z,62
2018-05-16T08:23:18.781Z,64
2018-05-16T08:24:20.776Z,64
2018-05-16T08:25:22.785Z,65
2018-05-16T08:26:24.786Z,64
2018-05-16T08:27:27.078Z,64
2018-05-16T08:28:29.082Z,63
2018-05-16T08:29:31.081Z,63
2018-05-16T08:30:33.091Z,65
2018-05-16T08:31:35.388Z,64
2018-05-16T08:32:37.392Z,63
2018-05-16T08:33:39.712Z,66
2018-05-16T08:34:41.714Z,65
2018-05-16T08:35:43.716Z,66
2018-05-16T08:36:45.811Z,65
2018-05-16T08:37:47.726Z,65
2018-05-16T08:38:49.734Z,63
2018-05-16T08:39:51.725Z,64
2018-05-16T08:40:53.737Z,65
2018-05-16T08:41:55.735Z,65
2018-05-16T08:42:58.653Z,65
2018-05-16T08:44:00.590Z,65
2018-05-16T08:45:03.555Z,64
2018-05-16T08:46:05.558Z,65
2018-05-16T08:47:07.555Z,65
2018-05-16T08:48:09.560Z,66
2018-05-16T08:49:11.587Z,66
2018-05-16T08:50:13.593Z,66
2018-05-16T08:51:15.604Z,66
2018-05-16T08:52:17.891Z,67
2018-05-16T08:53:20.208Z,67
2018-05-16T08:54:22.208Z,66
2018-05-16T08:55:24.217Z,67
2018-05-16T08:56:26.232Z,65
2018-05-16T08:57:28.247Z,66
2018-05-16T08:58:30.251Z,64
2018-05-16T08:59:32.279Z,60
2018-05-16T09:00:34.284Z,62
2018-05-16T09:01:36.295Z,62
2018-05-16T09:02:38.595Z,60
2018-05-16T09:03:40.592Z,58
2018-05-16T09:04:42.606Z,59
2018-05-16T09:05:44.747Z,60
2018-05-16T09:06:46.784Z,61
2018-05-16T09:07:49.009Z,61
2018-05-16T09:08:51.010Z,59
2018-05-16T09:09:53.019Z,62
2018-05-16T09:10:55.038Z,60
2018-05-16T09:11:57.054Z,60
2018-05-16T09:12:59.076Z,58
2018-05-16T09:14:01.087Z,56
2018-05-16T09:15:03.121Z,56
2018-05-16T09:16:05.142Z,56
2018-05-16T09:17:07.153Z,58
2018-05-16T09:18:09.155Z,56
2018-05-16T09:19:11.443Z,56
2018-05-16T09:20:14.017Z,54
2018-05-16T09:21:16.035Z,53
2018-05-16T09:22:20.522Z,53
2018-05-16T09:23:22.627Z,53
2018-05-16T09:24:24.827Z,53
2018-05-16T09:25:27.360Z,56
2018-05-16T09:26:29.380Z,56
2018-05-16T09:27:31.396Z,55
2018-05-16T09:28:34.098Z,55
2018-05-16T09:29:36.245Z,54
2018-05-16T09:30:38.497Z,52
2018-05-16T09:31:40.518Z,52
2018-05-16T09:32:42.930Z,53
2018-05-16T09:33:45.014Z,52
2018-05-16T09:34:47.463Z,54
2018-05-16T09:35:49.544Z,51
2018-05-16T09:36:52.106Z,51
2018-05-16T09:37:54.649Z,52
2018-05-16T09:38:57.399Z,50
2018-05-16T09:39:59.707Z,52
2018-05-16T09:41:01.721Z,53
2018-05-16T09:42:04.256Z,54
2018-05-16T09:43:06.281Z,49
2018-05-16T09:44:08.520Z,49
2018-05-16T09:45:10.555Z,50
2018-05-16T09:46:13.593Z,49
2018-05-16T09:47:15.893Z,50
2018-05-16T09:48:18.567Z,52
2018-05-16T09:49:20.570Z,50
2018-05-16T09:50:22.585Z,49
2018-05-16T09:51:25.025Z,49
2018-05-16T09:52:27.104Z,48
2018-05-16T09:53:29.703Z,48
2018-05-16T09:54:32.353Z,49
2018-05-16T09:55:34.984Z,50
2018-05-16T09:56:37.005Z,52
2018-05-16T09:57:40.850Z,52
2018-05-16T09:58:42.980Z,52
2018-05-16T09:59:45.728Z,53
2018-05-16T10:00:47.752Z,54
2018-05-16T10:01:49.806Z,53
2018-05-16T10:02:51.944Z,52
2018-05-16T10:03:53.900Z,53
2018-05-16T10:04:56.190Z,54
2018-05-16T10:05:58.188Z,54
2018-05-16T10:07:01.029Z,52
2018-05-16T10:08:03.791Z,54
2018-05-16T10:09:05.987Z,53
2018-05-16T10:10:07.999Z,52
2018-05-16T10:11:10.926Z,53
2018-05-16T10:12:12.937Z,54
2018-05-16T10:13:15.005Z,54
2018-05-16T10:14:17.813Z,56
2018-05-16T10:15:19.833Z,56
2018-05-16T10:16:22.771Z,57
2018-05-16T10:17:24.863Z,54
2018-05-16T10:18:27.059Z,52
2018-05-16T10:19:29.064Z,53
2018-05-16T10:20:31.272Z,53
2018-05-16T10:21:33.321Z,53
2018-05-16T10:22:35.324Z,53
2018-05-16T10:23:37.852Z,52
2018-05-16T10:24:40.205Z,52
2018-05-16T10:25:42.284Z,50
2018-05-16T10:26:44.368Z,51
2018-05-16T10:27:46.438Z,53
2018-05-16T10:28:48.873Z,53
2018-05-16T10:29:50.876Z,53
2018-05-16T10:30:53.488Z,54
2018-05-16T10:31:55.723Z,54
2018-05-16T10:32:58.639Z,55
2018-05-16T10:34:00.660Z,55
2018-05-16T10:35:03.441Z,54
2018-05-16T10:36:05.859Z,55
2018-05-16T10:37:07.865Z,55
2018-05-16T10:38:10.133Z,55
2018-05-16T10:39:12.463Z,56
2018-05-16T10:40:15.007Z,54
2018-05-16T10:41:17.089Z,54
2018-05-16T10:42:19.213Z,54
2018-05-16T10:43:21.245Z,53
2018-05-16T10:44:23.549Z,54
2018-05-16T10:45:25.564Z,54
2018-05-16T10:46:27.575Z,52
2018-05-16T10:47:29.590Z,54
2018-05-16T10:48:31.608Z,52
2018-05-16T10:49:33.627Z,53
2018-05-16T10:50:35.908Z,55
2018-05-16T10:51:38.208Z,54
2018-05-16T10:52:40.228Z,53
2018-05-16T10:53:42.513Z,52
2018-05-16T10:54:44.520Z,55
2018-05-16T10:55:46.553Z,54
2018-05-16T10:56:49.144Z,54
2018-05-16T10:57:51.157Z,51
2018-05-16T10:58:53.170Z,52
2018-05-16T10:59:55.174Z,52
2018-05-16T11:00:57.192Z,51
2018-05-16T11:01:59.281Z,52
2018-05-16T11:03:01.531Z,49
2018-05-16T11:04:03.540Z,51
2018-05-16T11:05:05.544Z,51
2018-05-16T11:06:07.837Z,50
2018-05-16T11:07:10.233Z,49
2018-05-16T11:08:12.519Z,50
2018-05-16T11:09:14.527Z,51
2018-05-16T11:10:16.527Z,48
2018-05-16T11:11:18.537Z,51
2018-05-16T11:12:20.559Z,49
2018-05-16T11:13:22.872Z,48
2018-05-16T11:14:24.878Z,49
2018-05-16T11:15:27.550Z,47
2018-05-16T11:16:29.569Z,47
2018-05-16T11:17:31.582Z,47
2018-05-16T11:18:33.895Z,48
2018-05-16T11:19:35.898Z,48
2018-05-16T11:20:37.918Z,49
2018-05-16T11:21:39.921Z,49
2018-05-16T11:22:41.931Z,50
2018-05-16T11:23:43.938Z,47
2018-05-16T11:24:45.952Z,49
2018-05-16T11:25:47.964Z,47
2018-05-16T11:26:49.981Z,48
2018-05-16T11:27:52.282Z,48
2018-05-16T11:28:54.313Z,50
2018-05-16T11:29:56.609Z,50
2018-05-16T11:30:58.637Z,50
2018-05-16T11:32:00.646Z,47
2018-05-16T11:33:02.657Z,50
2018-05-16T11:34:04.667Z,49
2018-05-16T11:35:06.683Z,49
2018-05-16T11:36:08.689Z,48
2018-05-16T11:37:10.701Z,50
2018-05-16T11:38:12.697Z,49
2018-05-16T11:39:14.727Z,50
2018-05-16T11:40:17.013Z,48
2018-05-16T11:41:19.030Z,49
2018-05-16T11:42:21.427Z,49
2018-05-16T11:43:23.371Z,48
2018-05-16T11:44:25.378Z,50
2018-05-16T11:45:27.396Z,50
2018-05-16T11:46:29.398Z,46
2018-05-16T11:47:31.422Z,47
2018-05-16T11:48:33.434Z,46
2018-05-16T11:49:35.752Z,45
2018-05-16T11:50:38.046Z,45
2018-05-16T11:51:40.053Z,45
2018-05-16T11:52:42.077Z,46
2018-05-16T11:53:44.472Z,46
2018-05-16T11:54:46.484Z,47
2018-05-16T11:55:48.507Z,48
2018-05-16T11:56:50.518Z,47
2018-05-16T11:57:52.522Z,43
2018-05-16T11:58:54.529Z,43
2018-05-16T11:59:56.549Z,43
2018-05-16T12:00:58.561Z,45
2018-05-16T12:02:00.560Z,44
2018-05-16T12:03:02.582Z,46
2018-05-16T12:04:04.599Z,46
2018-05-16T12:05:06.609Z,46
2018-05-16T12:06:08.635Z,46
2018-05-16T12:07:10.752Z,45
2018-05-16T12:08:13.173Z,45
2018-05-16T12:09:15.345Z,43
2018-05-16T12:10:17.209Z,43
2018-05-16T12:11:19.241Z,44
2018-05-16T12:12:21.252Z,44
2018-05-16T12:13:23.263Z,46
2018-05-16T12:14:25.278Z,45
2018-05-16T12:15:27.290Z,45
2018-05-16T12:16:29.306Z,46
2018-05-16T12:17:31.324Z,47
2018-05-16T12:18:33.730Z,46
2018-05-16T12:19:35.746Z,48
2018-05-16T12:20:37.752Z,48
2018-05-16T12:21:39.828Z,46
2018-05-16T12:22:41.793Z,46
2018-05-16T12:23:44.716Z,48
2018-05-16T12:24:46.809Z,46
2018-05-16T12:25:48.836Z,47
2018-05-16T12:26:52.683Z,48
2018-05-16T12:27:55.570Z,48
2018-05-16T12:28:58.098Z,49
2018-05-16T12:30:00.429Z,48
2018-05-16T12:31:02.437Z,49
2018-05-16T12:32:04.452Z,49
2018-05-16T12:33:06.761Z,50
2018-05-16T12:34:08.785Z,49
2018-05-16T12:35:11.471Z,48
2018-05-16T12:36:13.883Z,49
2018-05-16T12:37:16.178Z,49
2018-05-16T12:38:18.603Z,50
2018-05-16T12:39:20.599Z,49
2018-05-16T12:40:22.687Z,50
2018-05-16T12:41:24.832Z,50
2018-05-16T12:42:27.214Z,51
2018-05-16T12:43:29.235Z,51
2018-05-16T12:44:31.267Z,52
2018-05-16T12:45:33.562Z,52
2018-05-16T12:46:35.593Z,51
2018-05-16T12:47:38.152Z,51
2018-05-16T12:48:40.179Z,52
2018-05-16T12:49:42.870Z,53
2018-05-16T12:50:44.877Z,53
2018-05-16T12:51:46.899Z,53
2018-05-16T12:52:48.916Z,53
2018-05-16T12:53:51.204Z,52
2018-05-16T12:54:53.615Z,52
2018-05-16T12:55:55.621Z,54
2018-05-16T12:56:57.644Z,52
2018-05-16T12:57:59.679Z,52
2018-05-16T12:59:01.981Z,53
2018-05-16T13:00:04.279Z,52
2018-05-16T13:01:06.564Z,52
2018-05-16T13:02:08.854Z,54
2018-05-16T13:03:10.895Z,55
2018-05-16T13:04:12.915Z,54
2018-05-16T13:05:16.030Z,54
2018-05-16T13:06:18.175Z,53
2018-05-16T13:07:20.764Z,55
2018-05-16T13:08:23.174Z,55
2018-05-16T13:09:25.188Z,57
2018-05-16T13:10:27.208Z,56
2018-05-16T13:11:29.214Z,56
2018-05-16T13:12:31.225Z,57
2018-05-16T13:13:33.242Z,57
2018-05-16T13:14:35.246Z,55
2018-05-16T13:15:37.558Z,56
2018-05-16T13:16:39.561Z,57
2018-05-16T13:17:41.634Z,57
2018-05-16T13:18:43.570Z,57
2018-05-16T13:19:45.580Z,56
2018-05-16T13:20:47.596Z,56
2018-05-16T13:21:49.996Z,56
2018-05-16T13:22:51.945Z,55
2018-05-16T13:23:53.961Z,56
2018-05-16T13:24:55.978Z,56
2018-05-16T13:25:57.991Z,56
2018-05-16T13:27:00.050Z,56
2018-05-16T13:28:02.018Z,56
2018-05-16T13:29:04.028Z,57
2018-05-16T13:30:06.405Z,58
2018-05-16T13:31:08.638Z,57
2018-05-16T13:32:10.657Z,59
2018-05-16T13:33:12.958Z,59
2018-05-16T13:34:15.256Z,59
2018-05-16T13:35:17.262Z,60
2018-05-16T13:36:19.327Z,59
2018-05-16T13:37:22.148Z,59
2018-05-16T13:38:24.164Z,60
2018-05-16T13:39:26.178Z,60
2018-05-16T13:40:28.190Z,58
2018-05-16T13:41:30.475Z,59
2018-05-16T13:42:32.501Z,59
2018-05-16T13:43:34.530Z,60
2018-05-16T13:44:36.541Z,60
2018-05-16T13:45:38.549Z,60
2018-05-16T13:46:41.477Z,60
2018-05-16T13:47:44.078Z,60
2018-05-16T13:48:46.077Z,61
2018-05-16T13:49:50.609Z,61
2018-05-16T13:50:53.253Z,61
2018-05-16T13:51:55.396Z,60
2018-05-16T13:52:58.340Z,60
2018-05-16T13:54:00.692Z,59
2018-05-16T13:55:02.695Z,60
2018-05-16T13:56:04.694Z,60
2018-05-16T13:57:06.707Z,60
2018-05-16T13:58:08.720Z,59
2018-05-16T13:59:11.106Z,59
2018-05-16T14:00:13.246Z,59
2018-05-16T14:01:15.130Z,60
2018-05-16T14:02:17.137Z,59
2018-05-16T14:03:19.529Z,60
2018-05-16T14:04:21.535Z,60
2018-05-16T14:05:23.548Z,60
2018-05-16T14:06:25.570Z,61
2018-05-16T14:07:27.562Z,62
2018-05-16T14:08:29.959Z,61
2018-05-16T14:09:31.970Z,61
2018-05-16T14:10:33.980Z,60
2018-05-16T14:11:35.992Z,62
2018-05-16T14:12:38.287Z,61
2018-05-16T14:13:40.299Z,61
2018-05-16T14:14:42.299Z,58
2018-05-16T14:15:44.597Z,59
2018-05-16T14:16:46.908Z,59
2018-05-16T14:17:48.910Z,56
2018-05-16T14:18:50.936Z,55
2018-05-16T14:19:52.948Z,56
2018-05-16T14:20:54.957Z,55
2018-05-16T14:21:56.988Z,54
2018-05-16T14:22:58.995Z,55
2018-05-16T14:24:00.991Z,55
2018-05-16T14:25:03.009Z,56
2018-05-16T14:26:05.023Z,56
2018-05-16T14:27:07.035Z,55
2018-05-16T14:28:09.056Z,55
2018-05-16T14:29:11.062Z,52
2018-05-16T14:30:13.081Z,53
2018-05-16T14:31:15.464Z,55
2018-05-16T14:32:17.487Z,56
2018-05-16T14:33:19.501Z,55
2018-05-16T14:34:21.806Z,54
2018-05-16T14:35:23.805Z,55
2018-05-16T14:36:25.916Z,55
2018-05-16T14:37:27.916Z,54
2018-05-16T14:38:29.934Z,54
2018-05-16T14:39:32.317Z,54
2018-05-16T14:40:34.722Z,53
2018-05-16T14:41:36.733Z,55
2018-05-16T14:42:38.789Z,56
2018-05-16T14:43:41.145Z,56
2018-05-16T14:44:43.158Z,56
2018-05-16T14:45:45.175Z,56